Los Angeles Regional Airport Weather

KWHP 130355Z 00000KT 10SM SKC 19/M17 A3009 RMK LAST

KAPV 191256Z AUTO 05004KT 10SM FEW075 SCT090 BKN110 18/18 A2996 RMK AO2 SLP144 T01830178 $

KAVX 130651Z AUTO 01006KT 10SM CLR 22/M23 A3009 RMK AO2 SLP160 T02221233

KBFL 130654Z AUTO 00000KT 4SM HZ OVC017 06/M01 A3020 RMK AO2 SLP227 T00561011

KBUR 130653Z 00000KT 10SM CLR 12/M07 A3005 RMK AO2 SLP166 T01171067 $

KCMA 130655Z AUTO VRB04KT 10SM CLR 12/M11 A3004 RMK AO2 SLPNO T01221111

KCNO 130653Z AUTO 00000KT 6SM HZ CLR 08/M02 A3006 RMK AO2 SLP177 T00831022 $

KEMT 130345Z 00000KT 10SM CLR 15/M04 A3005

KFUL 130653Z AUTO 00000KT 10SM CLR 12/M03 A3002 RMK AO2 SLP165 T01171028

KHHR 130653Z AUTO 00000KT 6SM HZ CLR 13/04 A3003 RMK AO2 SLP169 T01280044

KL35 130735Z AUTO 00000KT 10SM CLR M03/M18 A3031 RMK AO2

KLAX 130653Z VRB03KT 10SM CLR 17/M02 A3004 RMK AO2 SLP167 T01671022

KLGB 130653Z AUTO 00000KT 5SM HZ CLR 12/03 A3003 RMK AO2 SLP168 T01220033 $

KONT 130653Z 32003KT 10SM CLR 14/M11 A3005 RMK AO2 SLP169 T01441111

KOXR 130651Z AUTO 00000KT 5SM HZ FU CLR 10/02 A3004 RMK AO2 SLP172 T01000022

KPMD 130653Z AUTO 20006KT 10SM CLR 03/M19 A3021 RMK AO2 SLP229 T00281194 TSNO

KPOC 112347Z 27005KT 10SM CLR 25/M12 A3020

KRAL 130653Z AUTO 07006KT 10SM CLR 13/M11 A3006 RMK AO2 SLP167 T01331106

KSMO 130651Z AUTO 05004KT 10SM FU CLR 13/M02 A3003 RMK AO2 SLP169 T01331022

KSNA 130653Z 00000KT 10SM CLR 13/01 A3002 RMK AO2 SLP166 LAST T01330011

KTOA 130349Z VRB04KT 10SM SKC 13/M08 A3004

KTRM 130652Z AUTO 31005KT 10SM CLR 07/M01 A3004 RMK AO2 SLP174 T00671011

KVNY 130651Z AUTO 35011KT 10SM CLR 19/M26 A3005 RMK AO2 SLP168 T01941261

KWJF 130656Z AUTO 32003KT 10SM CLR M02/M26 A3021 RMK AO2 SLP244 T10221256



How to read METARs